Řízení letového provozu České republiky
Letiste: LKKV Aktualizace: 13.11.2019 19:00:25  UTC
 METAR LKKV 13.11. 19:00 ...
METAR LKKV 131900Z VRB02KT CAVOK 00/M00 Q1004 RMK REG QNH 1000=
 TAF LKKV 13.11. 17:00 ...
TAF LKKV 131700Z 1318/1500 VRB02KT 9999 SCT020 BKN040      TEMPO 1318/1410 BKN010      PROB30 TEMPO 1318/1409 4000 BR BKN004      BECMG 1410/1412 11008KT 9999 SCT025      TEMPO 1416/1500 5000 RASN BKN009=